createdAt,value
2023-10-06T00:02:29.944Z,16.67
2023-10-06T00:04:57.974Z,16.66
2023-10-06T00:07:25.726Z,16.65
2023-10-06T00:09:55.189Z,16.64
2023-10-06T00:12:21.887Z,16.64
2023-10-06T00:14:51.548Z,16.63
2023-10-06T00:17:18.967Z,16.63
2023-10-06T00:19:46.800Z,16.62
2023-10-06T00:22:16.240Z,16.62
2023-10-06T00:24:43.279Z,16.61
2023-10-06T00:27:14.113Z,16.60
2023-10-06T00:29:45.319Z,16.59
2023-10-06T00:32:24.309Z,16.59
2023-10-06T00:34:53.869Z,16.59
2023-10-06T00:37:24.529Z,16.59
2023-10-06T00:39:55.857Z,16.59
2023-10-06T00:42:22.723Z,16.59
2023-10-06T00:44:49.642Z,16.58
2023-10-06T00:47:17.005Z,16.58
2023-10-06T00:49:44.712Z,16.56
2023-10-06T00:52:13.302Z,16.57
2023-10-06T00:54:44.213Z,16.55
2023-10-06T00:57:13.819Z,16.54
2023-10-06T00:59:42.582Z,16.52
2023-10-06T01:02:12.601Z,16.51
2023-10-06T01:04:47.087Z,16.49
2023-10-06T01:07:14.955Z,16.50
2023-10-06T01:09:57.927Z,16.50
2023-10-06T01:12:32.431Z,16.49
2023-10-06T01:15:16.856Z,16.49
2023-10-06T01:17:44.586Z,16.48
2023-10-06T01:20:12.441Z,16.47
2023-10-06T01:22:45.678Z,16.47
2023-10-06T01:25:23.440Z,16.46
2023-10-06T01:27:51.606Z,16.45
2023-10-06T01:30:19.542Z,16.44
2023-10-06T01:32:50.259Z,16.43
2023-10-06T01:35:16.997Z,16.43
2023-10-06T01:37:44.771Z,16.42
2023-10-06T01:40:38.244Z,16.41
2023-10-06T01:43:11.294Z,16.40
2023-10-06T01:45:45.038Z,16.40
2023-10-06T01:48:15.076Z,16.40
2023-10-06T01:50:42.406Z,16.39
2023-10-06T01:53:11.852Z,16.39
2023-10-06T01:55:39.734Z,16.37
2023-10-06T01:58:08.753Z,16.37
2023-10-06T02:00:37.185Z,16.36
2023-10-06T02:03:13.630Z,16.38
2023-10-06T02:05:40.265Z,16.36
2023-10-06T02:08:22.425Z,16.36
2023-10-06T02:10:49.392Z,16.37
2023-10-06T02:13:22.736Z,16.37
2023-10-06T02:16:00.292Z,16.36
2023-10-06T02:18:45.854Z,16.35
2023-10-06T02:21:32.657Z,16.35
2023-10-06T02:24:05.186Z,16.35
2023-10-06T02:26:38.657Z,16.31
2023-10-06T02:29:12.609Z,16.31
2023-10-06T02:31:42.546Z,16.31
2023-10-06T02:34:15.833Z,16.31
2023-10-06T02:36:43.072Z,16.30
2023-10-06T02:39:09.971Z,16.29
2023-10-06T02:41:38.098Z,16.27
2023-10-06T02:44:20.379Z,16.27
2023-10-06T02:46:47.033Z,16.26
2023-10-06T02:49:13.770Z,16.26
2023-10-06T02:51:48.711Z,16.25
2023-10-06T02:54:15.520Z,16.24
2023-10-06T02:56:43.497Z,16.24
2023-10-06T02:59:22.844Z,16.22
2023-10-06T03:01:55.438Z,16.21
2023-10-06T03:04:24.054Z,16.20
2023-10-06T03:06:54.738Z,16.20
2023-10-06T03:09:44.494Z,16.19
2023-10-06T03:12:27.608Z,16.19
2023-10-06T03:14:55.359Z,16.18
2023-10-06T03:17:22.351Z,16.17
2023-10-06T03:20:18.288Z,16.17
2023-10-06T03:22:46.469Z,16.18
2023-10-06T03:25:17.665Z,16.16
2023-10-06T03:27:50.861Z,16.16
2023-10-06T03:30:27.925Z,16.14
2023-10-06T03:32:55.081Z,16.14
2023-10-06T03:35:46.618Z,16.14
2023-10-06T03:38:19.465Z,16.13
2023-10-06T03:40:49.353Z,16.12
2023-10-06T03:43:16.009Z,16.12
2023-10-06T03:45:45.041Z,16.12
2023-10-06T03:48:13.302Z,16.12
2023-10-06T03:50:44.164Z,16.11
2023-10-06T03:53:13.381Z,16.11
2023-10-06T03:55:41.225Z,16.11
2023-10-06T03:58:12.161Z,16.09
2023-10-06T04:00:41.266Z,16.07
2023-10-06T04:03:14.838Z,16.07
2023-10-06T04:05:52.398Z,16.06
2023-10-06T04:08:22.538Z,16.04
2023-10-06T04:10:52.884Z,16.04
2023-10-06T04:13:20.180Z,16.03
2023-10-06T04:15:50.602Z,16.03
2023-10-06T04:18:26.203Z,16.02
2023-10-06T04:20:54.932Z,16.02
2023-10-06T04:23:25.243Z,16.00
2023-10-06T04:25:56.755Z,16.00
2023-10-06T04:28:26.607Z,15.99
2023-10-06T04:30:54.684Z,15.98
2023-10-06T04:33:21.345Z,15.98
2023-10-06T04:36:08.749Z,15.98
2023-10-06T04:38:39.144Z,15.97
2023-10-06T04:41:10.475Z,15.98
2023-10-06T04:43:38.866Z,15.97
2023-10-06T04:46:06.651Z,15.97
2023-10-06T04:48:34.058Z,15.95
2023-10-06T04:51:04.134Z,15.96
2023-10-06T04:53:36.130Z,15.95
2023-10-06T04:56:12.455Z,15.96
2023-10-06T04:58:43.346Z,15.95
2023-10-06T05:01:12.155Z,15.95
2023-10-06T05:03:44.987Z,15.93
2023-10-06T05:06:18.037Z,15.94
2023-10-06T05:08:48.602Z,15.94
2023-10-06T05:11:20.686Z,15.93
2023-10-06T05:13:50.834Z,15.94
2023-10-06T05:16:20.131Z,15.94
2023-10-06T05:18:46.992Z,15.94
2023-10-06T05:21:13.574Z,15.94
2023-10-06T05:23:40.120Z,15.94
2023-10-06T05:26:11.802Z,15.93
2023-10-06T05:28:38.677Z,15.94
2023-10-06T05:31:08.624Z,15.93
2023-10-06T05:33:35.651Z,15.94
2023-10-06T05:36:13.128Z,15.93
2023-10-06T05:38:40.140Z,15.91
2023-10-06T05:41:12.470Z,15.90
2023-10-06T05:43:40.367Z,15.90
2023-10-06T05:46:07.260Z,15.90
2023-10-06T05:48:35.375Z,15.88
2023-10-06T05:51:11.073Z,15.88
2023-10-06T05:53:42.700Z,15.87
2023-10-06T05:56:09.964Z,15.87
2023-10-06T05:58:38.681Z,15.88
2023-10-06T06:01:12.302Z,15.87
2023-10-06T06:03:47.299Z,15.87
2023-10-06T06:06:23.821Z,15.87
2023-10-06T06:08:54.102Z,15.86
2023-10-06T06:11:21.377Z,15.85
2023-10-06T06:13:58.888Z,15.85
2023-10-06T06:16:33.768Z,15.84
2023-10-06T06:19:00.382Z,15.85
2023-10-06T06:21:27.458Z,15.84
2023-10-06T06:23:57.003Z,15.82
2023-10-06T06:26:24.270Z,15.84
2023-10-06T06:28:50.875Z,15.84
2023-10-06T06:31:19.591Z,15.83
2023-10-06T06:33:50.420Z,15.82
2023-10-06T06:36:17.267Z,15.82
2023-10-06T06:38:43.797Z,15.82
2023-10-06T06:41:10.402Z,15.81
2023-10-06T06:43:37.046Z,15.81
2023-10-06T06:46:03.668Z,15.81
2023-10-06T06:48:30.321Z,15.82
2023-10-06T06:50:56.902Z,15.82
2023-10-06T06:53:23.460Z,15.82
2023-10-06T06:55:50.186Z,15.83
2023-10-06T06:58:17.925Z,15.84
2023-10-06T07:00:47.555Z,15.83
2023-10-06T07:03:16.020Z,15.83
2023-10-06T07:05:44.240Z,15.82
2023-10-06T07:08:12.777Z,15.81
2023-10-06T07:10:44.724Z,15.80
2023-10-06T07:13:11.985Z,15.78
2023-10-06T07:15:38.547Z,15.74
2023-10-06T07:18:06.234Z,15.74
2023-10-06T07:20:33.981Z,15.73
2023-10-06T07:23:01.869Z,15.72
2023-10-06T07:25:30.027Z,15.72
2023-10-06T07:27:59.128Z,15.71
2023-10-06T07:30:28.522Z,15.71
2023-10-06T07:32:56.211Z,15.73
2023-10-06T07:35:43.612Z,15.74
2023-10-06T07:38:15.429Z,15.73
2023-10-06T07:40:43.685Z,15.75
2023-10-06T07:43:11.409Z,15.74
2023-10-06T07:45:38.037Z,15.74
2023-10-06T07:48:08.089Z,15.72
2023-10-06T07:50:35.976Z,15.72
2023-10-06T07:53:03.023Z,15.74
2023-10-06T07:55:29.783Z,15.76
2023-10-06T07:57:56.489Z,15.79
2023-10-06T08:00:30.049Z,15.81
2023-10-06T08:03:01.037Z,15.83
2023-10-06T08:05:31.168Z,15.86
2023-10-06T08:08:01.347Z,15.82
2023-10-06T08:10:31.793Z,15.81
2023-10-06T08:13:02.166Z,15.83
2023-10-06T08:15:29.369Z,15.88
2023-10-06T08:17:57.475Z,15.93
2023-10-06T08:20:28.676Z,15.95
2023-10-06T08:22:55.834Z,16.00
2023-10-06T08:25:25.130Z,16.03
2023-10-06T08:27:52.597Z,15.67
2023-10-06T08:30:20.993Z,15.36
2023-10-06T08:32:58.627Z,15.20
2023-10-06T08:35:25.318Z,15.17
2023-10-06T08:37:58.011Z,15.32
2023-10-06T08:40:24.985Z,15.46
2023-10-06T08:42:53.264Z,15.57
2023-10-06T08:45:30.445Z,15.68
2023-10-06T08:48:04.670Z,15.76
2023-10-06T08:50:34.757Z,15.65
2023-10-06T08:53:03.161Z,15.70
2023-10-06T08:55:30.389Z,15.74
2023-10-06T08:58:02.781Z,15.80
2023-10-06T09:00:32.478Z,15.85
2023-10-06T09:03:08.550Z,15.88
2023-10-06T09:05:38.815Z,15.89
2023-10-06T09:08:08.677Z,15.93
2023-10-06T09:10:41.912Z,15.94
2023-10-06T09:13:18.346Z,15.95
2023-10-06T09:15:56.699Z,15.96
2023-10-06T09:18:28.416Z,15.96
2023-10-06T09:20:57.330Z,15.96
2023-10-06T09:23:32.149Z,15.97
2023-10-06T09:26:03.287Z,16.01
2023-10-06T09:28:30.251Z,16.02
2023-10-06T09:31:02.796Z,16.02
2023-10-06T09:33:39.414Z,16.04
2023-10-06T09:36:32.105Z,16.05
2023-10-06T09:39:02.428Z,16.07
2023-10-06T09:41:30.449Z,16.09
2023-10-06T09:44:11.053Z,16.11
2023-10-06T09:46:42.712Z,16.12
2023-10-06T09:49:17.290Z,16.13
2023-10-06T09:51:45.123Z,16.11
2023-10-06T09:54:12.600Z,16.12
2023-10-06T09:56:42.730Z,16.12
2023-10-06T09:59:14.817Z,16.12
2023-10-06T10:01:46.995Z,16.12
2023-10-06T10:04:15.220Z,16.12
2023-10-06T10:06:45.806Z,16.14
2023-10-06T10:09:19.149Z,16.15
2023-10-06T10:11:58.318Z,16.17
2023-10-06T10:15:03.949Z,16.18
2023-10-06T10:17:49.278Z,16.22
2023-10-06T10:20:17.390Z,16.23
2023-10-06T10:22:44.425Z,16.26
2023-10-06T10:27:45.005Z,16.28
2023-10-06T10:30:14.077Z,16.29
2023-10-06T10:32:53.289Z,16.30
2023-10-06T10:35:20.259Z,16.28
2023-10-06T10:38:05.854Z,16.30
2023-10-06T10:40:47.917Z,16.29
2023-10-06T10:43:15.704Z,16.30
2023-10-06T10:45:46.120Z,16.31
2023-10-06T10:48:15.445Z,16.30
2023-10-06T10:50:54.359Z,16.32
2023-10-06T10:53:24.330Z,16.31
2023-10-06T10:55:51.842Z,16.32
2023-10-06T10:58:43.495Z,16.34
2023-10-06T11:01:28.602Z,16.34
2023-10-06T11:04:20.011Z,16.35
2023-10-06T11:06:50.629Z,16.37
2023-10-06T11:09:31.772Z,16.37
2023-10-06T11:12:20.164Z,16.38
2023-10-06T11:14:47.667Z,16.40
2023-10-06T11:17:14.443Z,16.41
2023-10-06T11:19:41.613Z,16.43
2023-10-06T11:22:23.706Z,16.43
2023-10-06T11:24:51.949Z,16.44
2023-10-06T11:27:23.643Z,16.45
2023-10-06T11:29:54.265Z,16.46
2023-10-06T11:32:23.012Z,16.46
2023-10-06T11:34:51.954Z,16.48
2023-10-06T11:37:21.892Z,16.49
2023-10-06T11:39:50.328Z,16.50
2023-10-06T11:42:31.125Z,16.52
2023-10-06T11:44:59.320Z,16.54
2023-10-06T11:47:29.083Z,16.58
2023-10-06T11:49:56.072Z,16.62
2023-10-06T11:52:22.957Z,16.66
2023-10-06T11:54:49.744Z,16.69
2023-10-06T11:57:16.867Z,16.71
2023-10-06T11:59:50.827Z,16.74
2023-10-06T12:02:18.117Z,16.73
2023-10-06T12:04:45.515Z,16.75
2023-10-06T12:07:25.153Z,16.75
2023-10-06T12:09:53.253Z,16.75
2023-10-06T12:12:19.889Z,16.76
2023-10-06T12:14:46.691Z,16.77
2023-10-06T12:17:16.080Z,16.77
2023-10-06T12:19:45.698Z,16.78
2023-10-06T12:22:14.766Z,16.78
2023-10-06T12:24:43.691Z,16.78
2023-10-06T12:27:10.833Z,16.80
2023-10-06T12:29:37.418Z,16.79
2023-10-06T12:32:05.528Z,16.81
2023-10-06T12:34:32.993Z,16.81
2023-10-06T12:37:03.392Z,16.82
2023-10-06T12:39:35.823Z,16.83
2023-10-06T12:42:05.160Z,16.84
2023-10-06T12:44:32.237Z,16.85
2023-10-06T12:47:04.606Z,16.86
2023-10-06T12:49:34.269Z,16.86
2023-10-06T12:52:00.948Z,16.88
2023-10-06T12:54:27.463Z,16.89
2023-10-06T12:56:54.052Z,16.89
2023-10-06T12:59:20.654Z,16.91
2023-10-06T13:01:50.203Z,16.92
2023-10-06T13:04:16.950Z,16.93
2023-10-06T13:06:43.818Z,16.94
2023-10-06T13:09:18.334Z,16.95
2023-10-06T13:11:44.998Z,16.96
2023-10-06T13:14:11.801Z,16.98
2023-10-06T13:16:38.534Z,16.98
2023-10-06T13:19:05.585Z,17.01
2023-10-06T13:21:32.174Z,17.02
2023-10-06T13:24:02.319Z,17.04
2023-10-06T13:26:42.657Z,17.07
2023-10-06T13:29:10.664Z,17.09
2023-10-06T13:31:38.434Z,17.10
2023-10-06T13:34:05.472Z,17.12
2023-10-06T13:36:32.297Z,17.12
2023-10-06T13:38:58.903Z,17.12
2023-10-06T13:41:25.603Z,17.12
2023-10-06T13:43:52.268Z,17.13
2023-10-06T13:46:19.290Z,17.14
2023-10-06T13:48:46.013Z,17.13
2023-10-06T13:51:13.140Z,17.14
2023-10-06T13:53:42.288Z,17.14
2023-10-06T13:56:09.501Z,17.14
2023-10-06T13:58:36.358Z,17.13
2023-10-06T14:01:02.993Z,17.13
2023-10-06T14:03:30.140Z,17.13
2023-10-06T14:06:00.321Z,17.14
2023-10-06T14:08:29.423Z,17.14
2023-10-06T14:10:57.764Z,17.11
2023-10-06T14:13:26.250Z,17.13
2023-10-06T14:15:56.702Z,17.13
2023-10-06T14:18:32.127Z,17.12
2023-10-06T14:20:59.418Z,17.12
2023-10-06T14:23:31.393Z,17.11
2023-10-06T14:26:01.707Z,17.12
2023-10-06T14:28:29.692Z,17.19
2023-10-06T14:31:15.574Z,17.28
2023-10-06T14:33:45.897Z,17.34
2023-10-06T14:36:15.557Z,17.42
2023-10-06T14:38:45.092Z,17.46
2023-10-06T14:41:16.586Z,17.50
2023-10-06T14:44:22.223Z,17.55
2023-10-06T14:46:51.772Z,17.59
2023-10-06T14:49:28.798Z,17.61
2023-10-06T14:52:02.193Z,17.58
2023-10-06T14:54:34.077Z,17.58
2023-10-06T14:57:02.400Z,17.54
2023-10-06T14:59:32.670Z,17.53
2023-10-06T15:02:07.547Z,17.49
2023-10-06T15:04:35.696Z,17.47
2023-10-06T15:07:03.036Z,17.45
2023-10-06T15:09:31.853Z,17.43
2023-10-06T15:11:58.462Z,17.40
2023-10-06T15:14:26.451Z,17.38
2023-10-06T15:16:54.410Z,17.36
2023-10-06T15:19:26.101Z,17.33
2023-10-06T15:21:56.043Z,17.32
2023-10-06T15:24:23.029Z,17.31
2023-10-06T15:26:51.538Z,17.30
2023-10-06T15:29:22.446Z,17.29
2023-10-06T15:31:50.319Z,17.27
2023-10-06T15:34:19.847Z,17.25
2023-10-06T15:36:46.660Z,17.24
2023-10-06T15:39:20.102Z,17.23
2023-10-06T15:41:47.864Z,17.23
2023-10-06T15:44:14.880Z,17.23
2023-10-06T15:46:42.196Z,17.22
2023-10-06T15:49:14.867Z,17.20
2023-10-06T15:51:44.012Z,17.20
2023-10-06T15:54:10.820Z,17.19
2023-10-06T15:56:39.912Z,17.18
2023-10-06T15:59:15.174Z,17.17
2023-10-06T16:01:44.346Z,17.15
2023-10-06T16:04:13.570Z,17.15
2023-10-06T16:06:42.982Z,17.14
2023-10-06T16:09:10.805Z,17.12
2023-10-06T16:11:40.832Z,17.12
2023-10-06T16:14:07.562Z,17.11
2023-10-06T16:16:35.993Z,17.08
2023-10-06T16:19:07.030Z,17.07
2023-10-06T16:21:34.456Z,17.05
2023-10-06T16:24:01.636Z,17.05
2023-10-06T16:26:31.299Z,17.05
2023-10-06T16:28:59.658Z,17.04
2023-10-06T16:31:27.317Z,17.05
2023-10-06T16:33:55.290Z,17.06
2023-10-06T16:36:23.749Z,17.07
2023-10-06T16:38:54.224Z,17.06
2023-10-06T16:41:24.239Z,17.05
2023-10-06T16:43:57.423Z,17.04
2023-10-06T16:46:24.752Z,17.03
2023-10-06T16:48:51.551Z,17.04
2023-10-06T16:51:21.586Z,17.02
2023-10-06T16:53:49.973Z,17.01
2023-10-06T16:56:19.594Z,16.99
2023-10-06T16:58:47.161Z,16.98
2023-10-06T17:01:13.849Z,16.97
2023-10-06T17:03:41.072Z,16.96
2023-10-06T17:06:12.417Z,16.97
2023-10-06T17:08:39.809Z,16.94
2023-10-06T17:11:25.194Z,16.93
2023-10-06T17:13:54.169Z,16.92
2023-10-06T17:16:21.208Z,16.91
2023-10-06T17:18:48.340Z,16.91
2023-10-06T17:21:15.825Z,16.88
2023-10-06T17:23:46.081Z,16.88
2023-10-06T17:26:16.043Z,16.88
2023-10-06T17:28:42.885Z,16.87
2023-10-06T17:31:16.049Z,16.87
2023-10-06T17:33:43.749Z,16.85
2023-10-06T17:36:10.462Z,16.85
2023-10-06T17:38:37.175Z,16.84
2023-10-06T17:41:04.845Z,16.84
2023-10-06T17:43:31.388Z,16.83
2023-10-06T17:45:58.983Z,16.83
2023-10-06T17:48:26.723Z,16.83
2023-10-06T17:50:53.678Z,16.83
2023-10-06T17:53:20.310Z,16.82
2023-10-06T17:55:57.529Z,16.82
2023-10-06T17:58:24.572Z,16.82
2023-10-06T18:00:51.361Z,16.82
2023-10-06T18:03:20.647Z,16.82
2023-10-06T18:05:49.593Z,16.82
2023-10-06T18:08:17.881Z,16.81
2023-10-06T18:10:46.179Z,16.81
2023-10-06T18:13:13.018Z,16.80
2023-10-06T18:15:39.631Z,16.80
2023-10-06T18:18:06.527Z,16.79
2023-10-06T18:20:38.950Z,16.78
2023-10-06T18:23:08.892Z,16.79
2023-10-06T18:25:37.596Z,16.78
2023-10-06T18:28:05.440Z,16.79
2023-10-06T18:30:32.614Z,16.78
2023-10-06T18:32:59.515Z,16.77
2023-10-06T18:35:26.148Z,16.77
2023-10-06T18:37:54.407Z,16.75
2023-10-06T18:40:21.212Z,16.75
2023-10-06T18:42:48.558Z,16.75
2023-10-06T18:45:15.260Z,16.73
2023-10-06T18:47:42.083Z,16.73
2023-10-06T18:50:18.949Z,16.72
2023-10-06T18:52:52.882Z,16.71
2023-10-06T18:55:23.653Z,16.71
2023-10-06T18:57:51.904Z,16.71
2023-10-06T19:00:18.704Z,16.70
2023-10-06T19:02:48.342Z,16.70
2023-10-06T19:05:15.903Z,16.69
2023-10-06T19:07:43.487Z,16.68
2023-10-06T19:10:10.845Z,16.67
2023-10-06T19:12:37.983Z,16.67
2023-10-06T19:15:09.301Z,16.66
2023-10-06T19:17:38.130Z,16.67
2023-10-06T19:20:08.504Z,16.67
2023-10-06T19:22:35.890Z,16.66
2023-10-06T19:25:03.019Z,16.68
2023-10-06T19:27:30.073Z,16.67
2023-10-06T19:29:56.644Z,16.67
2023-10-06T19:32:24.906Z,16.65
2023-10-06T19:34:52.685Z,16.67
2023-10-06T19:37:20.840Z,16.67
2023-10-06T19:39:47.715Z,16.67
2023-10-06T19:42:14.476Z,16.65
2023-10-06T19:44:44.500Z,16.65
2023-10-06T19:47:13.099Z,16.65
2023-10-06T19:49:40.238Z,16.64
2023-10-06T19:52:09.206Z,16.64
2023-10-06T19:54:36.851Z,16.63
2023-10-06T19:57:03.918Z,16.63
2023-10-06T19:59:33.625Z,16.63
2023-10-06T20:02:01.991Z,16.62
2023-10-06T20:04:28.695Z,16.63
2023-10-06T20:06:55.576Z,16.62
2023-10-06T20:09:25.170Z,16.59
2023-10-06T20:11:52.133Z,16.58
2023-10-06T20:14:18.953Z,16.59
2023-10-06T20:16:45.624Z,16.57
2023-10-06T20:19:12.678Z,16.58
2023-10-06T20:21:40.614Z,16.57
2023-10-06T20:24:09.839Z,16.58
2023-10-06T20:26:36.753Z,16.57
2023-10-06T20:29:10.478Z,16.57
2023-10-06T20:31:41.184Z,16.56
2023-10-06T20:34:08.532Z,16.56
2023-10-06T20:36:35.648Z,16.55
2023-10-06T20:39:09.623Z,16.56
2023-10-06T20:41:40.286Z,16.55
2023-10-06T20:44:13.727Z,16.55
2023-10-06T20:46:41.154Z,16.55
2023-10-06T20:49:11.715Z,16.54
2023-10-06T20:51:38.360Z,16.53
2023-10-06T20:54:05.204Z,16.52
2023-10-06T20:56:31.905Z,16.52
2023-10-06T20:58:58.985Z,16.53
2023-10-06T21:01:26.045Z,16.53
2023-10-06T21:03:53.108Z,16.53
2023-10-06T21:06:19.835Z,16.53
2023-10-06T21:08:47.818Z,16.52
2023-10-06T21:11:14.422Z,16.53
2023-10-06T21:13:41.036Z,16.53
2023-10-06T21:16:07.769Z,16.52
2023-10-06T21:18:34.391Z,16.51
2023-10-06T21:21:00.993Z,16.50
2023-10-06T21:23:28.690Z,16.50
2023-10-06T21:25:55.322Z,16.49
2023-10-06T21:28:23.905Z,16.49
2023-10-06T21:30:50.670Z,16.48
2023-10-06T21:33:17.297Z,16.47
2023-10-06T21:35:43.834Z,16.46
2023-10-06T21:38:10.396Z,16.45
2023-10-06T21:40:39.091Z,16.42
2023-10-06T21:43:05.921Z,16.44
2023-10-06T21:45:32.481Z,16.46
2023-10-06T21:47:59.091Z,16.45
2023-10-06T21:50:25.791Z,16.44
2023-10-06T21:52:53.130Z,16.43
2023-10-06T21:55:19.730Z,16.42
2023-10-06T21:57:46.345Z,16.42
2023-10-06T22:00:26.389Z,16.41
2023-10-06T22:02:54.894Z,16.41
2023-10-06T22:05:21.959Z,16.40
2023-10-06T22:07:52.434Z,16.40
2023-10-06T22:10:19.326Z,16.40
2023-10-06T22:12:48.672Z,16.38
2023-10-06T22:15:15.724Z,16.38
2023-10-06T22:17:42.457Z,16.37
2023-10-06T22:20:09.935Z,16.35
2023-10-06T22:22:37.875Z,16.36
2023-10-06T22:25:06.075Z,16.35
2023-10-06T22:27:34.002Z,16.35
2023-10-06T22:30:00.924Z,16.35
2023-10-06T22:32:27.671Z,16.36
2023-10-06T22:34:54.847Z,16.38
2023-10-06T22:37:26.264Z,16.36
2023-10-06T22:39:52.949Z,16.37
2023-10-06T22:42:19.539Z,16.38
2023-10-06T22:44:46.406Z,16.37
2023-10-06T22:47:13.061Z,16.37
2023-10-06T22:49:40.983Z,16.36
2023-10-06T22:52:07.540Z,16.36
2023-10-06T22:54:34.181Z,16.35
2023-10-06T22:57:00.911Z,16.34
2023-10-06T22:59:27.444Z,16.34
2023-10-06T23:01:55.028Z,16.32
2023-10-06T23:04:22.274Z,16.31
2023-10-06T23:06:49.239Z,16.31
2023-10-06T23:09:18.416Z,16.30
2023-10-06T23:11:45.655Z,16.29
2023-10-06T23:14:12.444Z,16.30
2023-10-06T23:16:40.774Z,16.29
2023-10-06T23:19:13.796Z,16.28
2023-10-06T23:21:44.103Z,16.27
2023-10-06T23:24:16.218Z,16.26
2023-10-06T23:26:46.062Z,16.27
2023-10-06T23:29:13.709Z,16.26
2023-10-06T23:31:41.394Z,16.26
2023-10-06T23:34:08.359Z,16.26
2023-10-06T23:36:35.317Z,16.25
2023-10-06T23:39:02.172Z,16.24
2023-10-06T23:41:30.646Z,16.23
2023-10-06T23:43:57.506Z,16.22
2023-10-06T23:46:26.477Z,16.21
2023-10-06T23:48:54.299Z,16.21
2023-10-06T23:51:22.146Z,16.22
2023-10-06T23:53:52.773Z,16.21
2023-10-06T23:56:26.339Z,16.21
2023-10-06T23:58:56.661Z,16.19
